Time;durP1;ratioP1;P1;durP2;ratioP2;P2;SDS_P1;SDS_P2;PMS_P1;PMS_P2;Temp;Humidity;BMP_temperature;BMP_pressure;BME280_temperature;BME280_humidity;BME280_pressure;Samples;Min_cycle;Max_cycle;Signal;HPM_P1;HPM_P2
2021/08/27 00:01:22;;;;;;;6.85;1.87;;;14.30;99.90;;;;;;6707120;88;20606;-75
2021/08/27 00:11:22;;;;;;;5.97;1.92;;;14.00;99.90;;;;;;6714069;88;20684;-75
2021/08/27 00:21:23;;;;;;;7.75;2.92;;;13.80;99.90;;;;;;6725180;88;20235;-75
2021/08/27 00:31:24;;;;;;;10.75;3.33;;;13.50;99.90;;;;;;6726139;88;20316;-74
2021/08/27 00:41:24;;;;;;;8.77;3.10;;;13.40;99.90;;;;;;6728873;88;20695;-75
2021/08/27 00:51:25;;;;;;;12.68;3.42;;;13.40;99.90;;;;;;6723894;88;20241;-75
2021/08/27 01:01:26;;;;;;;10.20;3.07;;;13.30;99.90;;;;;;6727722;88;20184;-75
2021/08/27 01:11:41;;;;;;;12.15;3.00;;;13.40;99.90;;;;;;6727762;88;20598;-75
2021/08/27 01:22:02;;;;;;;10.80;2.60;;;13.30;99.90;;;;;;6724282;88;20223;-75
2021/08/27 01:32:10;;;;;;;12.25;2.50;;;13.30;99.90;;;;;;6727749;88;20644;-74
2021/08/27 01:42:13;;;;;;;8.15;2.78;;;13.20;99.90;;;;;;6725633;88;20189;-75
2021/08/27 01:52:15;;;;;;;8.00;2.20;;;13.10;99.90;;;;;;6727371;88;20212;-75
2021/08/27 02:02:18;;;;;;;9.43;2.28;;;13.20;99.90;;;;;;6726517;88;20555;-75
2021/08/27 02:12:20;;;;;;;8.30;2.30;;;13.20;99.90;;;;;;6727846;88;20246;-75
2021/08/27 02:22:22;;;;;;;9.35;2.22;;;13.10;99.90;;;;;;6729243;88;20605;-75
2021/08/27 02:32:24;;;;;;;12.05;2.67;;;13.10;99.90;;;;;;6728925;88;20260;-75
2021/08/27 02:42:27;;;;;;;7.55;1.85;;;13.10;99.90;;;;;;6727190;88;20181;-74
2021/08/27 02:52:40;;;;;;;7.37;1.73;;;13.30;99.90;;;;;;6728776;88;20279;-75
2021/08/27 03:02:42;;;;;;;12.65;1.70;;;13.10;99.90;;;;;;6727755;88;20311;-74
2021/08/27 03:12:51;;;;;;;9.43;1.95;;;13.00;99.90;;;;;;6727902;88;20275;-75
2021/08/27 03:22:57;;;;;;;10.95;2.00;;;12.90;99.90;;;;;;6728431;88;20206;-75
2021/08/27 03:33:05;;;;;;;9.25;1.90;;;12.70;99.90;;;;;;6727272;88;20236;-75
2021/08/27 03:43:06;;;;;;;10.13;1.90;;;12.80;99.90;;;;;;6729675;88;20646;-75
2021/08/27 03:53:09;;;;;;;3.85;1.30;;;12.90;99.90;;;;;;6730054;88;20315;-75
2021/08/27 04:03:09;;;;;;;8.57;1.98;;;12.80;99.90;;;;;;6730246;88;20200;-75
2021/08/27 04:13:11;;;;;;;8.57;1.87;;;12.80;99.90;;;;;;6725947;88;20210;-74
2021/08/27 04:23:12;;;;;;;4.53;1.50;;;12.90;99.90;;;;;;6727670;88;20181;-75
2021/08/27 04:33:12;;;;;;;9.95;1.98;;;12.90;99.90;;;;;;6725766;88;20238;-74
2021/08/27 04:43:13;;;;;;;10.70;2.10;;;12.90;99.90;;;;;;6727301;88;20226;-75
2021/08/27 04:53:13;;;;;;;9.98;1.87;;;12.90;99.90;;;;;;6730048;88;20714;-75
2021/08/27 05:03:14;;;;;;;12.88;1.95;;;13.00;99.90;;;;;;6725492;88;20221;-75
2021/08/27 05:13:14;;;;;;;8.23;1.73;;;13.10;99.90;;;;;;6717749;88;20665;-74
2021/08/27 05:23:15;;;;;;;6.40;2.00;;;13.10;99.90;;;;;;6730011;88;20660;-78
2021/08/27 05:33:16;;;;;;;10.98;2.30;;;13.30;99.90;;;;;;6713163;88;20244;-76
2021/08/27 05:43:16;;;;;;;5.03;2.05;;;13.30;99.90;;;;;;6722487;88;20263;-76
2021/08/27 05:53:17;;;;;;;8.98;1.90;;;13.30;99.90;;;;;;6730248;88;20205;-73
2021/08/27 06:03:17;;;;;;;9.50;1.92;;;13.50;99.90;;;;;;6719734;88;20334;-75
2021/08/27 06:13:18;;;;;;;7.18;1.85;;;13.60;99.90;;;;;;6709377;88;20245;-76
2021/08/27 06:23:19;;;;;;;8.85;2.25;;;13.70;99.90;;;;;;6714350;88;20185;-75
2021/08/27 06:33:20;;;;;;;7.93;2.40;;;13.70;99.90;;;;;;6728530;88;20615;-74
2021/08/27 06:43:21;;;;;;;9.25;2.62;;;13.90;99.90;;;;;;6719534;88;20217;-75
2021/08/27 06:53:22;;;;;;;8.60;3.42;;;14.10;99.90;;;;;;6710372;88;20258;-74
2021/08/27 07:03:23;;;;;;;11.18;3.45;;;14.30;99.90;;;;;;6713337;88;20321;-74
2021/08/27 07:13:23;;;;;;;13.90;4.43;;;14.30;99.90;;;;;;6714713;88;20222;-76
2021/08/27 07:23:24;;;;;;;16.12;5.20;;;14.20;99.90;;;;;;6714704;88;20292;-74
2021/08/27 07:33:25;;;;;;;14.52;4.97;;;14.40;99.90;;;;;;6715694;88;20205;-74
2021/08/27 07:43:25;;;;;;;11.68;4.78;;;14.70;99.90;;;;;;6714002;88;20189;-75
2021/08/27 07:53:26;;;;;;;12.88;6.10;;;14.70;99.90;;;;;;6713865;88;20205;-76
2021/08/27 08:03:26;;;;;;;12.20;5.80;;;15.10;99.90;;;;;;6713726;88;20200;-75
2021/08/27 08:13:27;;;;;;;13.75;6.22;;;15.30;99.90;;;;;;6713516;88;20226;-74
2021/08/27 08:23:27;;;;;;;12.82;5.07;;;15.40;99.90;;;;;;6713723;88;20271;-74
2021/08/27 08:33:28;;;;;;;14.02;5.45;;;15.40;99.90;;;;;;6714579;88;20200;-74
2021/08/27 08:43:29;;;;;;;11.07;5.68;;;15.40;99.90;;;;;;6714127;88;20197;-75
2021/08/27 08:53:34;;;;;;;14.05;6.00;;;15.20;99.90;;;;;;6713729;88;20192;-75
2021/08/27 09:03:35;;;;;;;14.37;6.57;;;15.20;99.90;;;;;;6713169;88;20388;-75
2021/08/27 09:13:36;;;;;;;10.93;7.07;;;15.60;99.90;;;;;;6713080;88;20196;-75
2021/08/27 09:23:37;;;;;;;10.90;5.20;;;15.70;99.90;;;;;;6713023;88;20201;-75
2021/08/27 09:33:37;;;;;;;11.32;5.72;;;15.70;99.90;;;;;;6709099;88;20226;-75
2021/08/27 09:43:42;;;;;;;14.73;7.50;;;16.50;99.90;;;;;;6712458;88;20181;-75
2021/08/27 09:53:43;;;;;;;13.68;6.15;;;16.70;99.90;;;;;;6711844;88;20209;-76
2021/08/27 10:03:43;;;;;;;10.65;5.97;;;16.50;99.90;;;;;;6712003;88;20673;-76
2021/08/27 10:13:44;;;;;;;10.60;3.92;;;17.50;99.90;;;;;;6711620;88;20215;-76
2021/08/27 10:23:45;;;;;;;9.73;3.90;;;18.10;99.90;;;;;;6711330;88;20201;-76
2021/08/27 10:33:46;;;;;;;14.23;7.43;;;17.60;99.90;;;;;;6711648;88;20572;-76
2021/08/27 10:43:49;;;;;;;15.18;9.15;;;15.80;99.90;;;;;;6714313;88;20350;-76
2021/08/27 10:53:55;;;;;;;14.05;7.65;;;15.10;99.90;;;;;;6713991;88;20193;-76
2021/08/27 11:04:04;;;;;;;11.18;5.20;;;15.80;99.90;;;;;;6713847;88;20196;-75
2021/08/27 11:14:34;;;;;;;7.72;4.43;;;16.20;99.90;;;;;;6713886;88;20192;-75
2021/08/27 11:24:35;;;;;;;11.23;4.20;;;15.90;99.90;;;;;;6708877;88;20313;-75
2021/08/27 11:35:08;;;;;;;9.90;4.80;;;15.70;99.90;;;;;;6714534;88;20702;-75
2021/08/27 11:45:15;;;;;;;7.80;4.00;;;16.80;99.90;;;;;;6704808;88;20205;-75
2021/08/27 11:55:17;;;;;;;8.55;3.78;;;17.60;99.90;;;;;;6713706;88;20209;-75
2021/08/27 12:05:17;;;;;;;8.90;3.67;;;17.20;99.90;;;;;;6713718;88;20223;-75
2021/08/27 12:15:23;;;;;;;10.35;3.75;;;17.30;99.90;;;;;;6713799;88;20209;-75
2021/08/27 12:25:32;;;;;;;9.50;4.15;;;17.00;99.90;;;;;;6713096;88;20189;-75
2021/08/27 12:35:34;;;;;;;6.10;2.00;;;17.10;99.90;;;;;;6713330;88;20227;-74
2021/08/27 12:45:49;;;;;;;3.78;1.80;;;17.20;99.90;;;;;;6713141;88;20192;-74
2021/08/27 12:55:50;;;;;;;4.12;1.40;;;17.20;99.90;;;;;;6713616;88;20228;-74
2021/08/27 13:05:52;;;;;;;3.72;1.40;;;18.40;99.90;;;;;;6713641;88;20257;-77
2021/08/27 13:16:22;;;;;;;3.75;1.45;;;19.10;99.90;;;;;;6713480;88;20805;-74
2021/08/27 13:26:24;;;;;;;5.43;2.28;;;18.80;99.90;;;;;;6707470;88;20326;-74
2021/08/27 13:36:27;;;;;;;6.70;2.85;;;16.70;99.90;;;;;;6712637;88;20201;-74
2021/08/27 13:46:28;;;;;;;5.15;2.25;;;16.60;99.90;;;;;;6713592;88;20223;-74
2021/08/27 13:56:32;;;;;;;10.38;2.40;;;17.30;99.90;;;;;;6713087;88;20220;-75
2021/08/27 14:06:32;;;;;;;4.80;1.15;;;17.80;99.90;;;;;;6712576;88;20205;-75
2021/08/27 14:16:33;;;;;;;4.22;1.30;;;17.70;99.90;;;;;;6711956;88;20635;-74
2021/08/27 14:26:34;;;;;;;3.62;1.52;;;18.60;99.90;;;;;;6712628;88;20210;-75
2021/08/27 14:36:35;;;;;;;5.37;2.25;;;18.50;99.90;;;;;;6714736;88;20198;-74
2021/08/27 14:46:36;;;;;;;4.30;1.92;;;18.50;99.90;;;;;;6712381;88;20675;-74
2021/08/27 14:56:36;;;;;;;6.22;2.50;;;18.50;99.90;;;;;;6711726;88;20334;-74
2021/08/27 15:06:37;;;;;;;5.93;3.10;;;18.30;99.90;;;;;;6711495;88;21046;-76
2021/08/27 15:16:37;;;;;;;7.90;4.62;;;17.70;99.90;;;;;;6711633;88;20223;-76
2021/08/27 15:26:38;;;;;;;10.25;4.68;;;16.40;99.90;;;;;;6713329;88;20196;-76
2021/08/27 15:36:39;;;;;;;6.12;2.17;;;16.20;99.90;;;;;;6714403;88;20312;-74
2021/08/27 15:46:39;;;;;;;3.33;1.10;;;15.70;99.90;;;;;;6710616;88;20248;-74
2021/08/27 15:56:40;;;;;;;3.55;0.95;;;15.30;99.90;;;;;;6714162;88;20193;-74
2021/08/27 16:06:40;;;;;;;4.78;1.48;;;15.30;99.90;;;;;;6715438;88;20760;-75
2021/08/27 16:16:41;;;;;;;4.70;1.50;;;15.50;99.90;;;;;;6714331;88;20200;-75
2021/08/27 16:26:42;;;;;;;7.80;1.90;;;15.50;99.90;;;;;;6714150;88;20178;-74
2021/08/27 16:36:43;;;;;;;7.55;2.17;;;15.60;99.90;;;;;;6713360;88;20205;-75
2021/08/27 16:46:43;;;;;;;8.90;3.20;;;15.60;99.90;;;;;;6713170;88;20206;-75
2021/08/27 16:56:44;;;;;;;5.47;2.30;;;15.70;99.90;;;;;;6713201;88;20204;-74
2021/08/27 17:06:44;;;;;;;9.55;2.83;;;15.70;99.90;;;;;;6713352;88;20200;-74
2021/08/27 17:16:45;;;;;;;11.00;2.78;;;15.60;99.90;;;;;;6712601;88;20291;-74
2021/08/27 17:26:45;;;;;;;7.05;2.72;;;15.60;99.90;;;;;;6712123;88;21092;-74
2021/08/27 17:36:46;;;;;;;8.20;2.55;;;15.40;99.90;;;;;;6713028;88;20355;-74
2021/08/27 17:46:46;;;;;;;3.75;2.03;;;15.40;99.90;;;;;;6714151;88;20279;-74
2021/08/27 17:56:47;;;;;;;6.25;1.95;;;15.30;99.90;;;;;;6711993;88;20342;-74
2021/08/27 18:06:48;;;;;;;6.80;2.30;;;15.10;99.90;;;;;;6711739;88;20205;-74
2021/08/27 18:16:48;;;;;;;5.90;2.42;;;14.80;99.90;;;;;;6710475;88;20326;-74
2021/08/27 18:26:49;;;;;;;7.47;2.67;;;14.70;99.90;;;;;;6711202;88;20185;-74
2021/08/27 18:36:51;;;;;;;7.05;2.72;;;14.70;99.90;;;;;;6710941;88;20207;-74
2021/08/27 18:46:51;;;;;;;7.68;3.50;;;14.70;99.90;;;;;;6710917;88;20249;-74
2021/08/27 18:56:52;;;;;;;9.00;3.65;;;14.80;99.90;;;;;;6712444;88;20214;-74
2021/08/27 19:06:55;;;;;;;7.30;3.15;;;14.80;99.90;;;;;;6713744;88;20264;-74
2021/08/27 19:16:56;;;;;;;8.38;3.25;;;14.80;99.90;;;;;;6714005;88;20317;-74
2021/08/27 19:26:57;;;;;;;11.25;3.30;;;14.80;99.90;;;;;;6714192;88;20252;-74
2021/08/27 19:36:57;;;;;;;11.15;3.05;;;14.80;99.90;;;;;;6713279;88;20210;-74
2021/08/27 19:46:58;;;;;;;10.00;3.28;;;14.80;99.90;;;;;;6713157;88;20202;-74
2021/08/27 19:56:58;;;;;;;13.23;3.30;;;14.80;99.90;;;;;;6709468;88;20226;-74
2021/08/27 20:06:59;;;;;;;8.50;3.12;;;14.60;99.90;;;;;;6712761;88;20181;-74
2021/08/27 20:16:59;;;;;;;10.75;3.15;;;14.60;99.90;;;;;;6712644;88;20207;-74
2021/08/27 20:27:00;;;;;;;11.73;3.58;;;14.50;99.90;;;;;;6712440;88;20304;-74
2021/08/27 20:37:00;;;;;;;9.48;3.30;;;14.60;99.90;;;;;;6712573;88;20337;-74
2021/08/27 20:47:01;;;;;;;12.73;3.83;;;14.60;99.90;;;;;;6712618;88;20259;-74
2021/08/27 20:57:02;;;;;;;10.00;3.67;;;14.60;99.90;;;;;;6713183;88;20234;-74
2021/08/27 21:07:04;;;;;;;10.85;3.78;;;14.70;99.90;;;;;;6712504;88;20605;-73
2021/08/27 21:17:04;;;;;;;9.80;4.20;;;14.70;99.90;;;;;;6711888;88;20212;-74
2021/08/27 21:27:05;;;;;;;13.60;3.75;;;14.70;99.90;;;;;;6711953;88;20207;-74
2021/08/27 21:37:06;;;;;;;13.62;3.97;;;14.70;99.90;;;;;;6711835;88;20329;-74
2021/08/27 21:47:06;;;;;;;10.57;3.28;;;14.80;99.90;;;;;;6711910;88;20620;-74
2021/08/27 21:57:07;;;;;;;11.02;3.70;;;14.80;99.90;;;;;;6711476;88;20223;-74
2021/08/27 22:07:07;;;;;;;10.13;3.58;;;14.70;99.90;;;;;;6711804;88;20917;-74
2021/08/27 22:17:11;;;;;;;9.55;2.87;;;14.70;99.90;;;;;;6711758;88;20200;-74
2021/08/27 22:27:12;;;;;;;11.48;2.92;;;14.70;99.90;;;;;;6711696;88;20295;-74
2021/08/27 22:37:12;;;;;;;13.48;3.08;;;14.60;99.90;;;;;;6713579;88;20348;-74
2021/08/27 22:47:13;;;;;;;11.98;3.65;;;14.60;99.90;;;;;;6714740;88;20215;-74
2021/08/27 22:57:13;;;;;;;18.10;4.00;;;14.70;99.90;;;;;;6713594;88;20196;-74
2021/08/27 23:07:14;;;;;;;14.20;4.10;;;14.60;99.90;;;;;;6713446;88;20266;-74
2021/08/27 23:17:14;;;;;;;13.75;3.97;;;14.60;99.90;;;;;;6715396;88;20615;-76
2021/08/27 23:27:15;;;;;;;13.60;5.30;;;14.60;99.90;;;;;;6717382;88;20754;-76
2021/08/27 23:37:15;;;;;;;15.77;5.15;;;14.60;99.90;;;;;;6717198;88;20261;-76
2021/08/27 23:47:16;;;;;;;9.52;4.60;;;14.70;99.90;;;;;;6717279;88;20200;-76
2021/08/27 23:57:16;;;;;;;15.45;5.65;;;14.60;99.90;;;;;;6717690;88;20197;-76
